Time;durP1;ratioP1;P1;durP2;ratioP2;P2;SDS_P1;SDS_P2;PMS_P1;PMS_P2;Temp;Humidity;BMP_temperature;BMP_pressure;BME280_temperature;BME280_humidity;BME280_pressure;Samples;Min_cycle;Max_cycle;Signal;HPM_P1;HPM_P2
2022/07/15 00:01:33;;;;;;;4.20;1.80;;;14.40;99.90;;;;;;4837384;29;20525;-68
2022/07/15 00:04:23;;;;;;;4.63;1.70;;;14.40;99.90;;;;;;4830641;29;20464;-68
2022/07/15 00:07:12;;;;;;;2.87;1.50;;;14.40;99.90;;;;;;4842277;29;20487;-68
2022/07/15 00:10:18;;;;;;;7.57;2.40;;;14.40;99.90;;;;;;4838155;29;20461;-68
2022/07/15 00:13:08;;;;;;;4.37;2.07;;;14.40;99.90;;;;;;4837074;29;21055;-68
2022/07/15 00:15:57;;;;;;;5.00;1.37;;;14.40;99.90;;;;;;4835895;29;20465;-68
2022/07/15 00:18:45;;;;;;;2.47;1.50;;;14.40;99.90;;;;;;4844146;29;20563;-68
2022/07/15 00:21:34;;;;;;;3.60;1.80;;;14.40;99.90;;;;;;4839968;29;20581;-68
2022/07/15 00:24:22;;;;;;;8.63;2.07;;;14.40;99.90;;;;;;4833228;29;20567;-68
2022/07/15 00:27:11;;;;;;;9.10;2.13;;;14.40;99.90;;;;;;4840562;29;21044;-68
2022/07/15 00:30:00;;;;;;;4.10;1.53;;;14.40;99.90;;;;;;4839465;29;20552;-68
2022/07/15 00:32:49;;;;;;;4.50;1.57;;;14.40;99.90;;;;;;4841774;29;20620;-68
2022/07/15 00:35:39;;;;;;;2.87;1.37;;;14.40;99.90;;;;;;4831164;29;20477;-68
2022/07/15 00:38:27;;;;;;;6.30;2.00;;;14.40;99.90;;;;;;4834885;29;20477;-68
2022/07/15 00:41:15;;;;;;;3.83;1.50;;;14.40;99.90;;;;;;4835580;29;21032;-68
2022/07/15 00:44:04;;;;;;;5.10;1.67;;;14.30;99.90;;;;;;4831528;29;20481;-68
2022/07/15 00:46:54;;;;;;;1.73;1.37;;;14.30;99.90;;;;;;4837929;29;21085;-68
2022/07/15 00:49:43;;;;;;;4.70;1.97;;;14.30;99.90;;;;;;4836641;29;20488;-68
2022/07/15 00:52:31;;;;;;;2.40;1.50;;;14.30;99.90;;;;;;4828859;29;20616;-68
2022/07/15 00:55:21;;;;;;;4.37;1.33;;;14.30;99.90;;;;;;4833594;29;20501;-68
2022/07/15 00:58:12;;;;;;;3.03;1.40;;;14.30;99.90;;;;;;4837549;29;20786;-68
2022/07/15 01:01:01;;;;;;;3.73;1.50;;;14.30;99.90;;;;;;4838296;29;20505;-68
2022/07/15 01:03:53;;;;;;;5.50;1.50;;;14.30;99.90;;;;;;4832298;29;20473;-68
2022/07/15 01:06:41;;;;;;;4.20;1.43;;;14.30;99.90;;;;;;4834381;29;20457;-68
2022/07/15 01:09:29;;;;;;;6.00;1.67;;;14.20;99.90;;;;;;4834326;29;20609;-68
2022/07/15 01:12:18;;;;;;;3.47;1.63;;;14.30;99.90;;;;;;4821452;29;20520;-68
2022/07/15 01:15:07;;;;;;;2.47;1.27;;;14.30;99.90;;;;;;4837616;29;20697;-68
2022/07/15 01:17:55;;;;;;;4.30;1.27;;;14.30;99.90;;;;;;4839230;29;20493;-69
2022/07/15 01:20:47;;;;;;;3.33;1.27;;;14.30;99.90;;;;;;4831917;29;20545;-68
2022/07/15 01:23:40;;;;;;;3.17;1.53;;;14.30;99.90;;;;;;4833080;29;20505;-68
2022/07/15 01:26:28;;;;;;;3.83;1.70;;;14.30;99.90;;;;;;4827484;29;20528;-68
2022/07/15 01:29:17;;;;;;;7.50;1.63;;;14.30;99.90;;;;;;4836059;29;20550;-68
2022/07/15 01:32:06;;;;;;;5.07;1.63;;;14.30;99.90;;;;;;4850915;29;20517;-68
2022/07/15 01:34:54;;;;;;;2.60;1.40;;;14.30;99.90;;;;;;4851534;29;20517;-68
2022/07/15 01:37:46;;;;;;;3.20;1.40;;;14.30;99.90;;;;;;4855021;29;20494;-68
2022/07/15 01:40:35;;;;;;;3.60;1.40;;;14.30;99.90;;;;;;4834128;29;20540;-69
2022/07/15 01:43:24;;;;;;;4.87;1.70;;;14.30;99.90;;;;;;4838874;29;20620;-68
2022/07/15 01:46:12;;;;;;;2.03;1.30;;;14.30;99.90;;;;;;4836417;29;20550;-68
2022/07/15 01:52:09;;;;;;;5.40;1.80;;;14.30;99.90;;;;;;4843787;29;20519;-68
2022/07/15 01:54:58;;;;;;;7.37;1.30;;;14.30;99.90;;;;;;4834351;29;20488;-68
2022/07/15 01:57:47;;;;;;;4.27;1.50;;;14.30;99.90;;;;;;4835781;29;20596;-68
2022/07/15 02:00:36;;;;;;;3.77;1.20;;;14.30;99.90;;;;;;4840051;29;20604;-68
2022/07/15 02:03:24;;;;;;;3.00;1.30;;;14.30;99.90;;;;;;4827682;29;20521;-68
2022/07/15 02:06:12;;;;;;;2.83;1.20;;;14.30;99.90;;;;;;4836221;29;20792;-68
2022/07/15 02:09:01;;;;;;;2.07;1.17;;;14.30;99.90;;;;;;4832751;29;20473;-68
2022/07/15 02:11:53;;;;;;;4.17;1.67;;;14.30;99.90;;;;;;4852609;29;20507;-68
2022/07/15 02:14:42;;;;;;;5.23;1.40;;;14.30;99.90;;;;;;4855010;29;20976;-68
2022/07/15 02:17:30;;;;;;;2.17;1.10;;;14.20;99.90;;;;;;4843940;29;20486;-68
2022/07/15 02:20:18;;;;;;;2.90;1.23;;;14.20;99.90;;;;;;4841622;29;20660;-68
2022/07/15 02:23:07;;;;;;;5.90;1.37;;;14.10;99.90;;;;;;4837068;29;20668;-69
2022/07/15 02:25:55;;;;;;;2.80;1.10;;;14.10;99.90;;;;;;4829433;29;20497;-68
2022/07/15 02:28:45;;;;;;;5.43;1.93;;;14.10;99.90;;;;;;4837324;29;20456;-68
2022/07/15 02:31:35;;;;;;;2.70;1.10;;;14.10;99.90;;;;;;4836798;29;20498;-68
2022/07/15 02:34:23;;;;;;;2.60;1.20;;;14.10;99.90;;;;;;4840854;29;20492;-68
2022/07/15 02:37:11;;;;;;;2.20;1.20;;;14.10;99.90;;;;;;4838065;29;20489;-68
2022/07/15 02:40:00;;;;;;;2.40;1.20;;;14.10;99.90;;;;;;4832198;29;20684;-68
2022/07/15 02:42:50;;;;;;;2.93;1.10;;;14.00;99.90;;;;;;4832150;29;20903;-68
2022/07/15 02:45:40;;;;;;;2.30;1.00;;;14.10;99.90;;;;;;4832318;29;20560;-68
2022/07/15 02:48:29;;;;;;;2.90;0.90;;;14.10;99.90;;;;;;4839571;29;20571;-70
2022/07/15 02:51:17;;;;;;;4.70;1.20;;;14.10;99.90;;;;;;4831373;29;20465;-68
2022/07/15 02:54:06;;;;;;;0.77;0.77;;;14.10;99.90;;;;;;4837233;29;23450;-68
2022/07/15 02:56:54;;;;;;;1.90;1.20;;;14.10;99.90;;;;;;4831295;29;20493;-68
2022/07/15 02:59:42;;;;;;;3.07;1.10;;;14.10;99.90;;;;;;4833571;29;20504;-68
2022/07/15 03:02:32;;;;;;;5.50;1.40;;;14.10;99.90;;;;;;4837134;29;20561;-68
2022/07/15 03:05:21;;;;;;;3.77;1.20;;;14.00;99.90;;;;;;4836709;29;20650;-68
2022/07/15 03:08:09;;;;;;;3.33;1.20;;;14.00;99.90;;;;;;4835043;29;21009;-68
2022/07/15 03:10:58;;;;;;;1.40;1.30;;;14.00;99.90;;;;;;4835119;29;20544;-68
2022/07/15 03:13:46;;;;;;;2.00;1.07;;;14.00;99.90;;;;;;4837243;29;20484;-68
2022/07/15 03:16:34;;;;;;;1.30;1.00;;;14.10;99.90;;;;;;4832701;29;20460;-68
2022/07/15 03:19:24;;;;;;;3.00;1.10;;;14.10;99.90;;;;;;4832981;29;20518;-68
2022/07/15 03:22:12;;;;;;;2.37;1.27;;;14.00;99.90;;;;;;4835192;29;20549;-68
2022/07/15 03:25:00;;;;;;;3.37;1.30;;;14.00;99.90;;;;;;4829474;29;20473;-68
2022/07/15 03:27:49;;;;;;;1.97;1.17;;;14.00;99.90;;;;;;4839303;29;20841;-68
2022/07/15 03:30:37;;;;;;;4.37;1.40;;;14.00;99.90;;;;;;4838015;29;20497;-68
2022/07/15 03:33:26;;;;;;;3.90;1.20;;;14.00;99.90;;;;;;4830564;29;20908;-69
2022/07/15 03:36:16;;;;;;;4.60;1.20;;;14.00;99.90;;;;;;4838293;29;20510;-68
2022/07/15 03:39:05;;;;;;;1.40;1.00;;;14.10;99.90;;;;;;4831109;29;20621;-68
2022/07/15 03:41:53;;;;;;;1.70;1.00;;;14.10;99.90;;;;;;4835784;29;20510;-68
2022/07/15 03:44:41;;;;;;;2.37;1.10;;;14.10;99.90;;;;;;4838946;29;20457;-68
2022/07/15 03:47:30;;;;;;;2.70;1.07;;;14.20;99.90;;;;;;4841562;29;20469;-68
2022/07/15 03:50:18;;;;;;;5.13;1.50;;;14.10;99.90;;;;;;4835870;29;20469;-68
2022/07/15 03:53:08;;;;;;;1.90;1.00;;;14.20;99.90;;;;;;4839039;29;20517;-68
2022/07/15 03:55:56;;;;;;;4.00;1.03;;;14.10;99.90;;;;;;4829480;29;20477;-68
2022/07/15 03:58:44;;;;;;;1.57;1.03;;;14.10;99.90;;;;;;4840103;29;21287;-68
2022/07/15 04:01:33;;;;;;;3.87;1.23;;;14.10;99.90;;;;;;4839263;29;20960;-68
2022/07/15 04:04:21;;;;;;;3.07;1.30;;;14.10;99.90;;;;;;4833964;29;20496;-68
2022/07/15 04:07:09;;;;;;;3.13;1.23;;;14.10;99.90;;;;;;4833154;29;20742;-69
2022/07/15 04:09:59;;;;;;;2.20;0.90;;;14.10;99.90;;;;;;4835123;29;20560;-68
2022/07/15 04:12:47;;;;;;;2.60;0.90;;;14.10;99.90;;;;;;4837258;29;20786;-70
2022/07/15 04:15:35;;;;;;;2.70;1.00;;;14.10;99.90;;;;;;4833137;29;20841;-68
2022/07/15 04:18:24;;;;;;;2.03;1.03;;;14.10;99.90;;;;;;4838210;29;20465;-68
2022/07/15 04:21:16;;;;;;;0.90;0.83;;;14.10;99.90;;;;;;4832916;29;20448;-68
2022/07/15 04:24:05;;;;;;;1.80;0.80;;;14.10;99.90;;;;;;4833721;29;20485;-68
2022/07/15 04:26:55;;;;;;;2.33;1.10;;;14.20;99.90;;;;;;4832989;29;20468;-68
2022/07/15 04:29:46;;;;;;;1.13;0.90;;;14.20;99.90;;;;;;4835077;29;20465;-68
2022/07/15 04:32:34;;;;;;;2.20;1.00;;;14.20;99.90;;;;;;4824248;29;20622;-68
2022/07/15 04:35:23;;;;;;;2.37;1.07;;;14.20;99.90;;;;;;4829134;29;20741;-68
2022/07/15 04:38:11;;;;;;;4.20;1.47;;;14.20;99.90;;;;;;4833002;29;20563;-68
2022/07/15 04:40:59;;;;;;;3.10;1.43;;;14.30;99.90;;;;;;4829496;29;22404;-68
2022/07/15 04:43:49;;;;;;;1.70;1.10;;;14.40;99.90;;;;;;4839690;29;21187;-68
2022/07/15 04:46:37;;;;;;;1.87;1.00;;;14.40;99.90;;;;;;4841235;29;21020;-68
2022/07/15 04:52:31;;;;;;;3.80;1.40;;;14.50;99.90;;;;;;4852404;29;20495;-68
2022/07/15 04:55:19;;;;;;;2.33;1.00;;;14.40;99.90;;;;;;4861737;29;20512;-68
2022/07/15 04:58:08;;;;;;;2.67;1.30;;;14.50;99.90;;;;;;4853744;29;21668;-68
2022/07/15 05:00:57;;;;;;;1.93;1.10;;;14.50;99.90;;;;;;4842758;29;20456;-68
2022/07/15 05:03:46;;;;;;;2.80;1.00;;;14.40;99.90;;;;;;4832051;29;22415;-68
2022/07/15 05:06:34;;;;;;;1.33;1.10;;;14.50;99.90;;;;;;4834729;29;21002;-68
2022/07/15 05:09:22;;;;;;;3.27;1.10;;;14.50;99.90;;;;;;4831196;29;20485;-70
2022/07/15 05:12:11;;;;;;;2.60;1.70;;;14.50;99.90;;;;;;4835919;29;20516;-70
2022/07/15 05:15:02;;;;;;;5.10;1.53;;;14.50;99.90;;;;;;4833210;29;20492;-70
2022/07/15 05:17:51;;;;;;;5.13;1.70;;;14.60;99.90;;;;;;4830611;29;20973;-70
2022/07/15 05:20:40;;;;;;;3.30;1.67;;;14.60;99.90;;;;;;4834469;29;20488;-69
2022/07/15 05:23:29;;;;;;;4.20;1.80;;;14.70;99.90;;;;;;4822756;29;20583;-70
2022/07/15 05:26:18;;;;;;;4.20;1.80;;;14.80;99.90;;;;;;4836088;29;20445;-69
2022/07/15 05:29:07;;;;;;;3.40;1.50;;;14.80;99.90;;;;;;4823860;29;20556;-68
2022/07/15 05:31:55;;;;;;;2.77;1.70;;;14.80;99.90;;;;;;4826218;29;20613;-68
2022/07/15 05:34:45;;;;;;;3.80;1.70;;;14.80;99.90;;;;;;4824706;29;20901;-68
2022/07/15 05:37:33;;;;;;;4.77;1.77;;;14.80;99.90;;;;;;4816359;29;20475;-68
2022/07/15 05:40:22;;;;;;;4.63;1.53;;;14.80;99.90;;;;;;4825234;29;20544;-68
2022/07/15 05:43:10;;;;;;;3.30;1.40;;;14.80;99.90;;;;;;4827778;29;20616;-68
2022/07/15 05:45:58;;;;;;;3.10;1.40;;;14.70;99.90;;;;;;4825714;29;20954;-68
2022/07/15 05:48:47;;;;;;;4.83;1.33;;;14.70;99.90;;;;;;4823488;29;20500;-68
2022/07/15 05:51:36;;;;;;;2.97;1.30;;;14.60;99.90;;;;;;4829179;29;20567;-68
2022/07/15 05:54:27;;;;;;;3.07;1.60;;;14.60;99.90;;;;;;4825619;29;20484;-68
2022/07/15 05:57:15;;;;;;;2.40;1.50;;;14.60;99.90;;;;;;4827053;29;20464;-68
2022/07/15 06:00:06;;;;;;;2.63;1.10;;;14.60;99.90;;;;;;4829432;29;20497;-68
2022/07/15 06:02:54;;;;;;;3.63;1.57;;;14.70;99.90;;;;;;4822821;29;20468;-68
2022/07/15 06:05:42;;;;;;;4.73;1.40;;;14.70;99.90;;;;;;4808616;29;20487;-68
2022/07/15 06:08:32;;;;;;;3.50;1.17;;;14.80;99.90;;;;;;4813447;29;20554;-69
2022/07/15 06:11:20;;;;;;;1.90;1.27;;;14.90;99.90;;;;;;4829813;29;20907;-68
2022/07/15 06:14:08;;;;;;;2.07;1.10;;;14.80;99.90;;;;;;4834682;29;20556;-68
2022/07/15 06:16:57;;;;;;;1.53;0.97;;;14.90;99.90;;;;;;4831899;29;20473;-68
2022/07/15 06:19:45;;;;;;;1.67;1.20;;;15.00;99.90;;;;;;4830219;29;21092;-68
2022/07/15 06:22:33;;;;;;;2.80;1.43;;;15.00;99.90;;;;;;4825445;29;20498;-68
2022/07/15 06:25:23;;;;;;;3.27;1.10;;;15.00;99.90;;;;;;4823238;29;20509;-68
2022/07/15 06:28:13;;;;;;;2.93;1.17;;;15.10;99.90;;;;;;4829032;29;20541;-69
2022/07/15 06:31:01;;;;;;;2.83;1.17;;;15.10;99.90;;;;;;4824559;29;21081;-70
2022/07/15 06:33:50;;;;;;;2.70;1.00;;;15.20;99.90;;;;;;4823906;29;20543;-68
2022/07/15 06:36:38;;;;;;;4.87;1.27;;;15.20;99.90;;;;;;4835592;29;20513;-68
2022/07/15 06:39:26;;;;;;;3.60;1.10;;;15.20;99.90;;;;;;4825119;29;20971;-71
2022/07/15 06:42:17;;;;;;;2.40;1.00;;;15.30;99.90;;;;;;4829610;29;20496;-67
2022/07/15 06:45:07;;;;;;;3.00;1.13;;;15.30;99.90;;;;;;4844560;29;20543;-69
2022/07/15 06:47:55;;;;;;;2.57;1.40;;;15.40;99.90;;;;;;4838259;29;20518;-69
2022/07/15 06:50:44;;;;;;;2.57;1.10;;;15.40;99.90;;;;;;4829879;29;20527;-68
2022/07/15 06:53:32;;;;;;;3.73;1.30;;;15.50;99.90;;;;;;4818153;29;20492;-69
2022/07/15 06:56:20;;;;;;;3.27;1.00;;;15.50;99.90;;;;;;4812709;29;20485;-69
2022/07/15 06:59:10;;;;;;;2.23;1.30;;;15.50;99.90;;;;;;4807433;29;20489;-68
2022/07/15 07:01:58;;;;;;;4.60;1.40;;;15.60;99.90;;;;;;4820516;29;20560;-71
2022/07/15 07:04:47;;;;;;;1.90;0.90;;;15.60;99.90;;;;;;4817302;29;20898;-69
2022/07/15 07:07:35;;;;;;;3.30;1.50;;;15.60;99.90;;;;;;4822933;29;20487;-69
2022/07/15 07:10:25;;;;;;;4.13;1.60;;;15.70;99.90;;;;;;4829428;29;20560;-71
2022/07/15 07:13:14;;;;;;;3.60;1.40;;;15.70;99.90;;;;;;4817751;29;20882;-71
2022/07/15 07:16:08;;;;;;;2.57;1.17;;;15.80;99.90;;;;;;4823794;29;20468;-71
2022/07/15 07:18:58;;;;;;;3.20;1.20;;;15.80;99.90;;;;;;4822153;29;20456;-72
2022/07/15 07:21:46;;;;;;;5.20;1.33;;;15.80;99.90;;;;;;4831251;29;20580;-72
2022/07/15 07:24:35;;;;;;;3.17;1.30;;;15.80;99.90;;;;;;4813316;29;20977;-74
2022/07/15 07:27:23;;;;;;;4.03;1.37;;;15.80;99.90;;;;;;4827026;29;20472;-74
2022/07/15 07:30:13;;;;;;;1.90;1.10;;;15.80;99.90;;;;;;4824666;29;20787;-71
2022/07/15 07:33:04;;;;;;;3.43;1.20;;;15.80;99.90;;;;;;4812855;29;20813;-71
2022/07/15 07:35:53;;;;;;;2.50;1.20;;;15.90;99.90;;;;;;4839871;29;20491;-72
2022/07/15 07:38:42;;;;;;;4.30;1.43;;;16.00;99.90;;;;;;4833792;29;20779;-71
2022/07/15 07:41:36;;;;;;;4.40;1.50;;;16.10;99.90;;;;;;4830783;29;20902;-72
2022/07/15 07:44:24;;;;;;;2.60;1.40;;;16.10;99.90;;;;;;4820572;29;20498;-72
2022/07/15 07:47:13;;;;;;;3.53;1.30;;;16.20;99.90;;;;;;4814452;29;21922;-69
2022/07/15 07:50:03;;;;;;;1.53;1.30;;;16.30;99.90;;;;;;4809042;29;20476;-70
2022/07/15 07:52:53;;;;;;;2.87;1.20;;;16.40;99.90;;;;;;4811277;29;20500;-68
2022/07/15 07:55:41;;;;;;;2.13;1.10;;;16.40;99.90;;;;;;4814343;29;21576;-68
2022/07/15 07:58:30;;;;;;;2.20;1.20;;;16.40;99.90;;;;;;4824162;29;20467;-69
2022/07/15 08:01:18;;;;;;;5.53;1.53;;;16.40;99.90;;;;;;4814972;29;20471;-71
2022/07/15 08:04:07;;;;;;;1.13;0.80;;;16.40;99.90;;;;;;4821640;29;21048;-69
2022/07/15 08:06:57;;;;;;;3.43;0.83;;;16.40;99.90;;;;;;4819393;29;20459;-69
2022/07/15 08:09:46;;;;;;;4.10;1.47;;;16.30;99.90;;;;;;4816082;29;20456;-68
2022/07/15 08:12:34;;;;;;;2.67;1.30;;;16.20;99.90;;;;;;4818549;29;20657;-68
2022/07/15 08:15:23;;;;;;;3.20;0.97;;;16.10;99.90;;;;;;4805674;29;20919;-68
2022/07/15 08:18:15;;;;;;;4.10;1.40;;;16.10;99.90;;;;;;4819648;29;20464;-68
2022/07/15 08:21:03;;;;;;;1.60;0.90;;;15.90;99.90;;;;;;4816777;29;20477;-71
2022/07/15 08:23:54;;;;;;;1.30;1.03;;;15.80;99.90;;;;;;4818602;29;20500;-68
2022/07/15 08:26:43;;;;;;;2.50;1.20;;;15.70;99.90;;;;;;4816157;29;20460;-69
2022/07/15 08:29:31;;;;;;;1.83;0.80;;;15.70;99.90;;;;;;4809768;29;20484;-69
2022/07/15 08:32:19;;;;;;;1.33;0.80;;;15.80;99.90;;;;;;4822248;29;20508;-69
2022/07/15 08:35:08;;;;;;;2.50;1.20;;;15.80;99.90;;;;;;4815957;29;20483;-69
2022/07/15 08:38:07;;;;;;;1.43;0.97;;;15.80;99.90;;;;;;4825379;29;20640;-69
2022/07/15 08:40:57;;;;;;;3.80;1.50;;;15.90;99.90;;;;;;4830029;29;20777;-69
2022/07/15 08:43:46;;;;;;;1.60;0.97;;;15.90;99.90;;;;;;4830293;29;20483;-69
2022/07/15 08:46:35;;;;;;;2.93;1.40;;;16.00;99.90;;;;;;4825080;29;21016;-69
2022/07/15 08:49:26;;;;;;;3.93;0.80;;;16.00;99.90;;;;;;4823700;29;20473;-70
2022/07/15 08:52:16;;;;;;;1.80;1.10;;;16.10;99.90;;;;;;4815649;29;20515;-69
2022/07/15 08:55:06;;;;;;;2.30;1.23;;;16.20;99.90;;;;;;4822590;29;22260;-68
2022/07/15 08:57:56;;;;;;;1.83;0.90;;;16.30;99.90;;;;;;4820289;29;20492;-68
2022/07/15 09:00:44;;;;;;;2.30;1.03;;;16.40;99.90;;;;;;4825458;29;20791;-67
2022/07/15 09:03:32;;;;;;;2.30;0.77;;;16.50;99.90;;;;;;4814742;29;21016;-68
2022/07/15 09:06:34;;;;;;;3.80;1.27;;;16.60;99.90;;;;;;4816759;29;20465;-68
2022/07/15 09:09:25;;;;;;;1.27;0.70;;;16.60;99.90;;;;;;4807855;29;20809;-68
2022/07/15 09:12:14;;;;;;;3.30;0.93;;;16.50;99.90;;;;;;4805307;29;21232;-68
2022/07/15 09:15:06;;;;;;;1.60;0.87;;;16.40;99.90;;;;;;4835724;29;20468;-68
2022/07/15 09:18:06;;;;;;;1.63;0.90;;;16.40;99.90;;;;;;4840688;29;20582;-68
2022/07/15 09:20:54;;;;;;;1.43;0.63;;;16.30;99.90;;;;;;4842829;29;20472;-68
2022/07/15 09:23:43;;;;;;;2.50;1.10;;;16.30;99.90;;;;;;4827013;29;21117;-68
2022/07/15 09:26:33;;;;;;;2.00;1.00;;;16.40;99.90;;;;;;4812608;29;20473;-68
2022/07/15 09:36:06;;;;;;;3.60;0.80;;;16.60;99.90;;;;;;4816749;29;21023;-69
2022/07/15 09:38:56;;;;;;;1.87;0.90;;;16.70;99.90;;;;;;4816725;29;20535;-69
2022/07/15 09:41:46;;;;;;;1.70;0.70;;;16.80;99.90;;;;;;4818785;29;20987;-69
2022/07/15 09:44:34;;;;;;;0.63;0.60;;;16.90;99.90;;;;;;4825330;29;20483;-69
2022/07/15 09:47:24;;;;;;;1.50;0.50;;;17.00;99.90;;;;;;4813948;29;20560;-69
2022/07/15 09:50:15;;;;;;;1.07;0.67;;;17.20;99.90;;;;;;4823719;29;20544;-70
2022/07/15 09:53:04;;;;;;;2.53;1.07;;;17.30;99.90;;;;;;4819723;29;22001;-68
2022/07/15 09:55:54;;;;;;;2.37;1.03;;;17.30;99.90;;;;;;4807988;29;21025;-69
2022/07/15 09:58:44;;;;;;;2.50;0.90;;;17.30;99.90;;;;;;4810406;29;21032;-69
2022/07/15 10:01:33;;;;;;;1.33;0.83;;;17.40;99.90;;;;;;4810960;29;20457;-69
2022/07/15 10:04:23;;;;;;;1.77;0.60;;;17.50;99.90;;;;;;4804338;29;20473;-69
2022/07/15 10:07:14;;;;;;;1.83;0.83;;;17.70;99.90;;;;;;4819200;29;20538;-69
2022/07/15 10:10:15;;;;;;;1.87;0.80;;;17.90;99.90;;;;;;4815601;29;20472;-69
2022/07/15 10:13:26;;;;;;;0.83;0.80;;;18.00;99.90;;;;;;4813790;29;20597;-69
2022/07/15 10:16:39;;;;;;;2.20;0.90;;;18.00;99.90;;;;;;4815651;29;20588;-68
2022/07/15 10:19:38;;;;;;;2.87;0.90;;;18.00;99.90;;;;;;4817564;29;20640;-69
2022/07/15 10:22:39;;;;;;;2.50;0.67;;;18.10;99.90;;;;;;4818255;29;20583;-69
2022/07/15 10:25:56;;;;;;;1.33;0.70;;;18.20;99.90;;;;;;4809889;29;20496;-69
2022/07/15 10:28:51;;;;;;;2.10;0.70;;;18.30;99.90;;;;;;4810305;29;20544;-69
2022/07/15 10:31:40;;;;;;;0.70;0.50;;;18.30;99.90;;;;;;4816665;29;20465;-71
2022/07/15 10:34:33;;;;;;;4.20;1.00;;;18.40;99.90;;;;;;4822509;29;20500;-69
2022/07/15 10:37:22;;;;;;;2.77;0.70;;;18.40;99.90;;;;;;4807080;29;20773;-69
2022/07/15 10:40:11;;;;;;;1.03;0.60;;;18.40;99.90;;;;;;4813911;29;20474;-69
2022/07/15 10:43:01;;;;;;;2.10;1.10;;;18.40;99.90;;;;;;4812624;29;20503;-70
2022/07/15 10:46:04;;;;;;;2.40;0.73;;;18.50;99.90;;;;;;4820914;29;20861;-71
2022/07/15 10:49:22;;;;;;;5.80;0.80;;;18.60;99.90;;;;;;4823425;29;20487;-71
2022/07/15 10:52:16;;;;;;;1.63;0.80;;;18.50;99.90;;;;;;4826163;29;20480;-72
2022/07/15 10:55:05;;;;;;;1.80;0.67;;;18.60;99.90;;;;;;4817537;29;20563;-69
2022/07/15 10:57:56;;;;;;;1.73;0.70;;;18.70;99.90;;;;;;4831846;29;20504;-68
2022/07/15 11:00:46;;;;;;;0.80;0.60;;;18.70;99.90;;;;;;4819501;29;20475;-69
2022/07/15 11:03:34;;;;;;;1.00;0.50;;;18.80;99.90;;;;;;4828755;29;20738;-69
2022/07/15 11:06:23;;;;;;;2.57;0.60;;;18.90;99.90;;;;;;4825260;29;20467;-69
2022/07/15 11:09:11;;;;;;;2.20;0.60;;;18.90;99.90;;;;;;4831123;29;20953;-69
2022/07/15 11:11:59;;;;;;;0.87;0.50;;;19.00;99.90;;;;;;4831449;29;20480;-68
2022/07/15 11:14:55;;;;;;;1.27;0.80;;;19.10;99.90;;;;;;4841964;29;20461;-69
2022/07/15 11:17:46;;;;;;;2.80;0.83;;;19.10;99.90;;;;;;4841248;29;20507;-69
2022/07/15 11:20:38;;;;;;;1.43;1.10;;;19.00;99.90;;;;;;4822110;29;20563;-68
2022/07/15 11:23:31;;;;;;;3.50;0.97;;;19.10;99.90;;;;;;4822597;29;20510;-70
2022/07/15 11:26:20;;;;;;;1.90;0.67;;;18.90;99.90;;;;;;4820922;29;20575;-68
2022/07/15 11:29:08;;;;;;;1.43;0.60;;;18.90;99.90;;;;;;4820198;29;20461;-70
2022/07/15 11:31:58;;;;;;;2.60;0.80;;;18.90;99.90;;;;;;4827586;29;20594;-69
2022/07/15 11:34:48;;;;;;;1.23;0.73;;;19.00;99.90;;;;;;4830702;29;20464;-69
2022/07/15 11:37:37;;;;;;;1.40;0.80;;;19.20;99.90;;;;;;4827169;29;20488;-72
2022/07/15 11:46:44;;;;;;;1.47;0.70;;;19.30;99.90;;;;;;4821353;29;20468;-71
2022/07/15 11:49:38;;;;;;;1.03;0.70;;;19.40;99.90;;;;;;4828213;29;20901;-71
2022/07/15 11:52:27;;;;;;;1.60;0.80;;;19.40;99.90;;;;;;4810981;29;20678;-71
2022/07/15 11:55:15;;;;;;;1.13;0.53;;;19.60;99.90;;;;;;4807096;29;22718;-71
2022/07/15 11:58:03;;;;;;;1.93;0.90;;;19.70;99.90;;;;;;4808140;29;20584;-71
2022/07/15 12:00:57;;;;;;;2.57;0.90;;;19.80;99.90;;;;;;4810651;29;22617;-69
2022/07/15 12:03:48;;;;;;;1.90;0.63;;;19.80;99.90;;;;;;4823107;29;21067;-69
2022/07/15 12:06:38;;;;;;;2.97;1.00;;;19.80;99.90;;;;;;4818394;29;20591;-69
2022/07/15 12:09:27;;;;;;;1.93;0.70;;;19.90;99.90;;;;;;4813109;29;20487;-69
2022/07/15 12:12:17;;;;;;;1.20;0.67;;;19.80;99.90;;;;;;4816207;29;20996;-69
2022/07/15 12:15:06;;;;;;;1.50;0.77;;;19.80;99.90;;;;;;4815777;29;20587;-68
2022/07/15 12:17:55;;;;;;;2.13;1.03;;;19.80;99.90;;;;;;4810804;29;21052;-68
2022/07/15 12:20:43;;;;;;;2.87;0.87;;;19.80;99.90;;;;;;4812775;29;20452;-68
2022/07/15 12:23:34;;;;;;;2.93;0.83;;;19.90;99.90;;;;;;4818657;29;20555;-69
2022/07/15 12:26:22;;;;;;;1.20;0.73;;;19.90;99.90;;;;;;4810683;29;20578;-68
2022/07/15 12:29:12;;;;;;;3.03;1.00;;;20.10;99.90;;;;;;4819867;29;20465;-68
2022/07/15 12:32:02;;;;;;;0.60;0.60;;;20.20;99.90;;;;;;4812249;29;20720;-69
2022/07/15 12:34:53;;;;;;;2.00;0.80;;;20.30;99.90;;;;;;4809607;29;20453;-69
2022/07/15 12:37:49;;;;;;;1.30;0.70;;;20.30;99.90;;;;;;4812044;29;20500;-68
2022/07/15 12:40:39;;;;;;;2.30;0.80;;;20.10;99.90;;;;;;4811776;29;20469;-69
2022/07/15 12:43:49;;;;;;;2.77;1.00;;;20.00;99.90;;;;;;4817441;29;20492;-69
2022/07/15 12:46:58;;;;;;;0.70;0.70;;;20.10;99.90;;;;;;4819043;29;20467;-69
2022/07/15 12:49:49;;;;;;;2.30;0.80;;;20.10;99.90;;;;;;4824447;29;20453;-69
2022/07/15 12:52:40;;;;;;;2.13;0.73;;;20.10;99.90;;;;;;4821385;29;20608;-69
2022/07/15 12:55:31;;;;;;;1.90;0.70;;;20.30;99.90;;;;;;4829038;29;20523;-69
2022/07/15 12:58:25;;;;;;;1.60;0.77;;;20.40;99.90;;;;;;4817871;29;20492;-69
2022/07/15 13:01:15;;;;;;;1.03;0.57;;;20.50;99.90;;;;;;4824419;29;20461;-69
2022/07/15 13:04:04;;;;;;;2.57;0.80;;;20.60;99.90;;;;;;4823142;29;20847;-68
2022/07/15 13:06:52;;;;;;;1.93;0.70;;;20.60;99.90;;;;;;4821728;29;20553;-69
2022/07/15 13:09:40;;;;;;;1.73;1.00;;;20.70;99.90;;;;;;4822491;29;20483;-69
2022/07/15 13:12:29;;;;;;;1.53;0.70;;;20.70;99.90;;;;;;4830707;29;21005;-69
2022/07/15 13:15:19;;;;;;;1.43;0.80;;;20.80;99.90;;;;;;4819826;29;20485;-69
2022/07/15 13:18:11;;;;;;;1.10;0.90;;;20.90;99.90;;;;;;4817834;29;20523;-69
2022/07/15 13:21:00;;;;;;;3.03;0.80;;;20.90;99.90;;;;;;4812054;29;20471;-69
2022/07/15 13:23:48;;;;;;;1.80;0.87;;;20.90;99.90;;;;;;4825470;29;20489;-69
2022/07/15 13:26:37;;;;;;;1.97;0.90;;;21.00;99.90;;;;;;4844142;29;20491;-69
2022/07/15 13:29:25;;;;;;;1.57;0.80;;;21.10;99.90;;;;;;4836611;29;20457;-68
2022/07/15 13:32:14;;;;;;;1.83;0.80;;;20.90;99.90;;;;;;4842085;29;20880;-68
2022/07/15 13:35:06;;;;;;;1.33;0.70;;;21.00;99.90;;;;;;4831794;29;20465;-69
2022/07/15 13:37:54;;;;;;;2.70;1.03;;;21.00;99.90;;;;;;4823750;29;20483;-69
2022/07/15 13:40:42;;;;;;;1.20;0.60;;;21.20;99.90;;;;;;4812014;29;20456;-71
2022/07/15 13:43:31;;;;;;;2.20;0.70;;;21.20;99.90;;;;;;4826571;29;20511;-70
2022/07/15 13:46:19;;;;;;;2.30;0.90;;;21.30;99.90;;;;;;4827339;29;20480;-70
2022/07/15 13:49:09;;;;;;;1.73;0.80;;;21.30;99.90;;;;;;4827126;29;20460;-70
2022/07/15 13:51:57;;;;;;;1.70;0.83;;;21.40;99.90;;;;;;4829389;29;20955;-70
2022/07/15 13:54:45;;;;;;;2.60;0.70;;;21.50;99.90;;;;;;4821849;29;20464;-70
2022/07/15 13:57:33;;;;;;;0.83;0.53;;;21.70;99.90;;;;;;4828640;29;20478;-70
2022/07/15 14:00:24;;;;;;;1.70;0.80;;;21.80;99.90;;;;;;4820290;29;20602;-70
2022/07/15 14:03:12;;;;;;;1.50;0.70;;;21.90;99.90;;;;;;4816587;29;21264;-70
2022/07/15 14:06:03;;;;;;;3.03;0.73;;;22.10;99.90;;;;;;4819272;29;20472;-70
2022/07/15 14:08:51;;;;;;;2.40;0.90;;;22.00;99.90;;;;;;4807454;29;20510;-70
2022/07/15 14:11:39;;;;;;;1.33;0.70;;;22.00;99.90;;;;;;4810381;29;20486;-71
2022/07/15 14:14:28;;;;;;;1.90;0.73;;;21.90;99.90;;;;;;4821402;29;20472;-71
2022/07/15 14:17:16;;;;;;;1.37;0.67;;;22.20;99.90;;;;;;4825531;29;20479;-70
2022/07/15 14:20:05;;;;;;;2.23;0.70;;;22.50;99.90;;;;;;4809288;29;20646;-71
2022/07/15 14:22:56;;;;;;;1.17;0.60;;;22.50;99.90;;;;;;4812246;29;20484;-70
2022/07/15 14:25:44;;;;;;;3.40;0.70;;;22.50;99.90;;;;;;4817893;29;20500;-71
2022/07/15 14:28:32;;;;;;;1.53;1.10;;;22.60;99.90;;;;;;4823468;29;20937;-71
2022/07/15 14:31:21;;;;;;;2.20;0.80;;;22.70;99.90;;;;;;4821874;29;20612;-70
2022/07/15 14:34:10;;;;;;;2.93;0.80;;;22.50;99.90;;;;;;4822683;29;20559;-70
2022/07/15 14:36:59;;;;;;;3.00;0.70;;;22.50;99.90;;;;;;4819122;29;20452;-71
2022/07/15 14:40:13;;;;;;;1.43;0.60;;;22.50;99.90;;;;;;4815584;29;20578;-71
2022/07/15 14:43:02;;;;;;;1.27;0.70;;;22.50;99.90;;;;;;4817504;29;20665;-70
2022/07/15 14:45:50;;;;;;;0.90;0.67;;;22.70;99.90;;;;;;4820511;29;20461;-70
2022/07/15 14:48:39;;;;;;;0.80;0.80;;;22.60;99.90;;;;;;4815373;29;20520;-70
2022/07/15 14:51:27;;;;;;;1.10;0.50;;;22.60;99.90;;;;;;4818917;29;20471;-70
2022/07/15 14:54:15;;;;;;;0.73;0.67;;;22.70;99.90;;;;;;4812187;29;20643;-71
2022/07/15 14:57:05;;;;;;;1.70;0.60;;;22.50;99.90;;;;;;4815178;29;21060;-70
2022/07/15 14:59:56;;;;;;;1.70;0.80;;;22.40;99.90;;;;;;4823183;29;20930;-71
2022/07/15 15:02:44;;;;;;;1.33;0.60;;;22.40;99.90;;;;;;4819561;29;20908;-70
2022/07/15 15:05:33;;;;;;;0.83;0.60;;;22.50;99.90;;;;;;4810014;29;20643;-70